createdAt,value
2018-06-04T00:00:36.877Z,0.00
2018-06-04T00:01:36.842Z,0.00
2018-06-04T00:02:36.827Z,0.00
2018-06-04T00:03:36.824Z,0.00
2018-06-04T00:04:36.775Z,0.00
2018-06-04T00:05:36.749Z,0.00
2018-06-04T00:06:36.732Z,0.00
2018-06-04T00:07:36.704Z,0.00
2018-06-04T00:08:36.683Z,0.00
2018-06-04T00:09:36.656Z,0.00
2018-06-04T00:10:36.635Z,0.00
2018-06-04T00:11:36.610Z,0.00
2018-06-04T00:12:36.591Z,0.00
2018-06-04T00:13:36.559Z,0.00
2018-06-04T00:14:36.545Z,0.00
2018-06-04T00:15:36.514Z,0.00
2018-06-04T00:16:36.492Z,0.00
2018-06-04T00:17:36.466Z,0.00
2018-06-04T00:18:36.446Z,0.00
2018-06-04T00:19:36.426Z,0.00
2018-06-04T00:20:36.415Z,0.00
2018-06-04T00:21:36.375Z,0.00
2018-06-04T00:22:36.347Z,0.00
2018-06-04T00:23:36.327Z,0.00
2018-06-04T00:24:36.300Z,0.00
2018-06-04T00:25:36.275Z,0.00
2018-06-04T00:26:36.258Z,0.00
2018-06-04T00:27:36.234Z,0.00
2018-06-04T00:28:36.202Z,0.00
2018-06-04T00:29:36.181Z,0.00
2018-06-04T00:30:36.158Z,0.00
2018-06-04T00:31:36.132Z,0.00
2018-06-04T00:32:36.116Z,0.00
2018-06-04T00:33:36.084Z,0.00
2018-06-04T00:34:36.070Z,0.00
2018-06-04T00:35:36.038Z,0.00
2018-06-04T00:36:36.024Z,0.00
2018-06-04T00:37:35.998Z,0.00
2018-06-04T00:38:35.968Z,0.00
2018-06-04T00:39:35.943Z,0.00
2018-06-04T00:40:35.923Z,0.00
2018-06-04T00:41:35.896Z,0.00
2018-06-04T00:42:35.876Z,0.00
2018-06-04T00:43:35.846Z,0.00
2018-06-04T00:44:35.831Z,0.00
2018-06-04T00:45:35.798Z,0.00
2018-06-04T00:46:35.783Z,0.00
2018-06-04T00:47:35.753Z,0.00
2018-06-04T00:48:35.733Z,0.00
2018-06-04T00:49:35.705Z,0.00
2018-06-04T00:50:35.683Z,0.00
2018-06-04T00:51:35.654Z,0.00
2018-06-04T00:52:35.641Z,0.00
2018-06-04T00:53:35.611Z,0.00
2018-06-04T00:54:35.596Z,0.00
2018-06-04T00:55:35.567Z,0.00
2018-06-04T00:56:35.537Z,0.00
2018-06-04T00:57:35.520Z,0.00
2018-06-04T00:58:35.491Z,0.00
2018-06-04T00:59:35.473Z,0.00
2018-06-04T01:00:35.459Z,0.00
2018-06-04T01:01:35.444Z,0.00
2018-06-04T01:02:35.392Z,0.00
2018-06-04T01:03:35.369Z,0.00
2018-06-04T01:04:35.355Z,0.00
2018-06-04T01:05:35.321Z,0.00
2018-06-04T01:06:35.305Z,0.00
2018-06-04T01:07:35.277Z,0.00
2018-06-04T01:08:35.258Z,0.00
2018-06-04T01:09:35.231Z,0.00
2018-06-04T01:10:35.206Z,0.00
2018-06-04T01:11:35.186Z,0.00
2018-06-04T01:12:35.155Z,0.00
2018-06-04T01:13:35.132Z,0.00
2018-06-04T01:14:35.113Z,0.00
2018-06-04T01:15:35.097Z,0.00
2018-06-04T01:16:35.060Z,0.00
2018-06-04T01:17:35.034Z,0.00
2018-06-04T01:18:35.023Z,0.00
2018-06-04T01:19:34.995Z,0.00
2018-06-04T01:20:34.969Z,0.00
2018-06-04T01:21:34.948Z,0.00
2018-06-04T01:22:34.912Z,0.00
2018-06-04T01:23:34.908Z,0.00
2018-06-04T01:24:34.873Z,0.00
2018-06-04T01:25:34.849Z,0.00
2018-06-04T01:26:34.828Z,0.00
2018-06-04T01:27:34.804Z,0.00
2018-06-04T01:28:34.775Z,0.00
2018-06-04T01:29:34.749Z,0.00
2018-06-04T01:30:34.732Z,0.00
2018-06-04T01:31:34.729Z,0.00
2018-06-04T01:32:34.685Z,0.00
2018-06-04T01:33:34.660Z,0.00
2018-06-04T01:34:34.629Z,0.00
2018-06-04T01:35:34.614Z,0.00
2018-06-04T01:36:34.589Z,0.00
2018-06-04T01:37:34.562Z,0.00
2018-06-04T01:38:34.535Z,0.00
2018-06-04T01:39:34.535Z,0.00
2018-06-04T01:40:34.484Z,0.00
2018-06-04T01:41:34.471Z,0.00
2018-06-04T01:42:34.443Z,0.00
2018-06-04T01:43:34.419Z,0.00
2018-06-04T01:44:34.388Z,0.00
2018-06-04T01:45:34.369Z,0.00
2018-06-04T01:46:34.364Z,0.00
2018-06-04T01:47:34.316Z,0.00
2018-06-04T01:48:34.301Z,0.00
2018-06-04T01:49:34.276Z,0.00
2018-06-04T01:50:34.247Z,0.00
2018-06-04T01:51:34.224Z,0.00
2018-06-04T01:52:34.200Z,0.00
2018-06-04T01:53:34.177Z,0.00
2018-06-04T01:54:34.162Z,0.00
2018-06-04T01:55:34.128Z,0.00
2018-06-04T01:56:34.104Z,0.00
2018-06-04T01:57:34.083Z,0.00
2018-06-04T01:58:34.060Z,0.00
2018-06-04T01:59:34.032Z,0.00
2018-06-04T02:00:34.012Z,0.00
2018-06-04T02:01:33.989Z,0.00
2018-06-04T02:02:33.979Z,0.00
2018-06-04T02:03:33.935Z,0.00
2018-06-04T02:04:33.918Z,0.00
2018-06-04T02:05:33.892Z,0.00
2018-06-04T02:06:33.860Z,0.00
2018-06-04T02:07:33.845Z,0.00
2018-06-04T02:08:33.821Z,0.00
2018-06-04T02:09:33.790Z,0.00
2018-06-04T02:10:33.772Z,0.00
2018-06-04T02:11:33.743Z,0.00
2018-06-04T02:12:33.721Z,0.00
2018-06-04T02:13:33.703Z,0.00
2018-06-04T02:14:33.672Z,0.00
2018-06-04T02:15:33.653Z,0.00
2018-06-04T02:16:33.621Z,0.00
2018-06-04T02:17:33.609Z,0.00
2018-06-04T02:18:33.574Z,0.00
2018-06-04T02:19:33.555Z,0.00
2018-06-04T02:20:33.525Z,0.00
2018-06-04T02:21:33.507Z,0.00
2018-06-04T02:22:33.478Z,0.00
2018-06-04T02:23:33.463Z,0.00
2018-06-04T02:24:33.429Z,0.00
2018-06-04T02:25:33.413Z,0.00
2018-06-04T02:26:33.382Z,0.00
2018-06-04T02:27:33.356Z,0.00
2018-06-04T02:28:33.334Z,0.00
2018-06-04T02:29:33.314Z,0.00
2018-06-04T02:30:33.291Z,0.00
2018-06-04T02:31:33.264Z,0.00
2018-06-04T02:32:33.243Z,0.00
2018-06-04T02:33:33.219Z,0.00
2018-06-04T02:34:33.205Z,0.00
2018-06-04T02:35:33.174Z,0.00
2018-06-04T02:36:33.139Z,0.00
2018-06-04T02:37:33.119Z,0.00
2018-06-04T02:38:33.100Z,0.00
2018-06-04T02:39:33.072Z,0.00
2018-06-04T02:40:33.045Z,0.00
2018-06-04T02:41:33.023Z,4.00
2018-06-04T02:42:32.997Z,4.00
2018-06-04T02:43:32.975Z,0.00
2018-06-04T02:44:32.948Z,0.00
2018-06-04T02:45:32.931Z,4.00
2018-06-04T02:46:32.901Z,4.00
2018-06-04T02:47:32.880Z,0.00
2018-06-04T02:48:32.855Z,4.00
2018-06-04T02:49:32.828Z,4.00
2018-06-04T02:50:32.809Z,4.00
2018-06-04T02:51:32.782Z,4.00
2018-06-04T02:52:32.760Z,4.00
2018-06-04T02:53:32.734Z,8.00
2018-06-04T02:54:32.708Z,8.00
2018-06-04T02:55:32.684Z,8.00
2018-06-04T02:56:32.659Z,8.00
2018-06-04T02:57:32.637Z,8.00
2018-06-04T02:58:32.615Z,12.00
2018-06-04T02:59:32.591Z,12.00
2018-06-04T03:00:32.562Z,16.00
2018-06-04T03:01:32.540Z,16.00
2018-06-04T03:02:32.519Z,20.00
2018-06-04T03:03:32.555Z,20.00
2018-06-04T03:04:32.465Z,24.00
2018-06-04T03:05:32.437Z,28.00
2018-06-04T03:06:32.423Z,28.00
2018-06-04T03:07:32.411Z,32.00
2018-06-04T03:08:32.367Z,36.00
2018-06-04T03:09:32.344Z,40.00
2018-06-04T03:10:32.324Z,44.00
2018-06-04T03:11:32.304Z,48.00
2018-06-04T03:12:32.279Z,52.00
2018-06-04T03:13:32.258Z,60.00
2018-06-04T03:14:32.229Z,60.00
2018-06-04T03:15:32.199Z,72.00
2018-06-04T03:16:32.177Z,76.00
2018-06-04T03:17:32.157Z,80.00
2018-06-04T03:18:32.135Z,88.00
2018-06-04T03:19:32.110Z,92.00
2018-06-04T03:20:32.075Z,100.00
2018-06-04T03:21:32.055Z,108.00
2018-06-04T03:22:32.032Z,116.00
2018-06-04T03:23:32.008Z,124.00
2018-06-04T03:24:32.234Z,132.00
2018-06-04T03:25:31.955Z,144.00
2018-06-04T03:26:31.993Z,152.00
2018-06-04T03:27:31.906Z,160.00
2018-06-04T03:28:31.895Z,168.00
2018-06-04T03:29:31.917Z,180.00
2018-06-04T03:30:31.841Z,188.00
2018-06-04T03:31:31.823Z,200.00
2018-06-04T03:32:31.792Z,208.00
2018-06-04T03:33:31.855Z,220.00
2018-06-04T03:34:31.742Z,232.00
2018-06-04T03:35:31.720Z,244.00
2018-06-04T03:36:31.690Z,252.00
2018-06-04T03:37:31.715Z,268.00
2018-06-04T03:38:31.666Z,276.00
2018-06-04T03:39:31.678Z,288.00
2018-06-04T03:40:31.656Z,300.00
2018-06-04T03:41:31.589Z,316.00
2018-06-04T03:42:31.584Z,328.00
2018-06-04T03:43:31.521Z,340.00
2018-06-04T03:44:31.569Z,356.00
2018-06-04T03:45:31.472Z,364.00
2018-06-04T03:46:31.451Z,376.00
2018-06-04T03:47:31.422Z,396.00
2018-06-04T03:48:31.405Z,408.00
2018-06-04T03:49:31.378Z,420.00
2018-06-04T03:50:31.356Z,432.00
2018-06-04T03:51:31.358Z,448.00
2018-06-04T03:52:31.333Z,460.00
2018-06-04T03:53:31.298Z,472.00
2018-06-04T03:54:31.261Z,488.00
2018-06-04T03:55:31.289Z,500.00
2018-06-04T03:56:31.201Z,516.00
2018-06-04T03:57:31.181Z,528.00
2018-06-04T03:58:31.159Z,544.00
2018-06-04T03:59:31.192Z,560.00
2018-06-04T04:00:31.164Z,572.00
2018-06-04T04:01:31.095Z,584.00
2018-06-04T04:02:31.143Z,596.00
2018-06-04T04:03:31.074Z,612.00
2018-06-04T04:04:31.014Z,628.00
2018-06-04T04:05:30.994Z,640.00
2018-06-04T04:06:30.961Z,652.00
2018-06-04T04:07:30.943Z,668.00
2018-06-04T04:08:30.914Z,684.00
2018-06-04T04:09:30.893Z,696.00
2018-06-04T04:10:30.868Z,712.00
2018-06-04T04:11:30.843Z,724.00
2018-06-04T04:12:30.817Z,740.00
2018-06-04T04:13:30.825Z,752.00
2018-06-04T04:14:30.773Z,768.00
2018-06-04T04:15:30.756Z,780.00
2018-06-04T04:16:30.718Z,800.00
2018-06-04T04:17:30.731Z,816.00
2018-06-04T04:18:30.673Z,832.00
2018-06-04T04:19:30.644Z,848.00
2018-06-04T04:20:30.629Z,860.00
2018-06-04T04:21:30.656Z,876.00
2018-06-04T04:22:30.635Z,888.00
2018-06-04T04:23:30.598Z,896.00
2018-06-04T04:24:30.532Z,908.00
2018-06-04T04:25:30.499Z,912.00
2018-06-04T04:26:30.483Z,924.00
2018-06-04T04:27:30.557Z,932.00
2018-06-04T04:28:30.464Z,944.00
2018-06-04T04:29:30.405Z,956.00
2018-06-04T04:30:30.388Z,968.00
2018-06-04T04:31:30.353Z,980.00
2018-06-04T04:32:30.337Z,992.00
2018-06-04T04:33:30.305Z,1004.00
2018-06-04T04:34:30.337Z,1016.00
2018-06-04T04:35:30.310Z,1028.00
2018-06-04T04:36:30.270Z,1040.00
2018-06-04T04:37:30.210Z,1048.00
2018-06-04T04:38:30.191Z,1060.00
2018-06-04T04:39:30.163Z,1072.00
2018-06-04T04:40:30.143Z,1088.00
2018-06-04T04:41:31.023Z,1100.00
2018-06-04T04:42:30.209Z,1108.00
2018-06-04T04:43:30.063Z,1120.00
2018-06-04T04:44:30.049Z,1132.00
2018-06-04T04:45:30.043Z,1144.00
2018-06-04T04:46:30.023Z,1152.00
2018-06-04T04:47:30.110Z,1164.00
2018-06-04T04:48:29.951Z,1176.00
2018-06-04T04:49:29.980Z,1188.00
2018-06-04T04:50:29.958Z,1196.00
2018-06-04T04:51:29.933Z,1212.00
2018-06-04T04:52:29.854Z,1228.00
2018-06-04T04:53:29.897Z,1236.00
2018-06-04T04:54:29.865Z,1252.00
2018-06-04T04:55:29.843Z,1256.00
2018-06-04T04:56:29.797Z,1268.00
2018-06-04T04:57:29.728Z,1276.00
2018-06-04T04:58:29.708Z,1288.00
2018-06-04T04:59:29.680Z,1296.00
2018-06-04T05:00:29.658Z,1304.00
2018-06-04T05:01:29.650Z,1312.00
2018-06-04T05:02:29.609Z,1324.00
2018-06-04T05:03:29.635Z,1324.00
2018-06-04T05:04:29.617Z,1328.00
2018-06-04T05:05:29.533Z,1336.00
2018-06-04T05:06:29.581Z,1336.00
2018-06-04T05:07:29.517Z,1340.00
2018-06-04T05:08:29.465Z,1348.00
2018-06-04T05:09:29.444Z,1348.00
2018-06-04T05:10:29.422Z,1352.00
2018-06-04T05:11:29.466Z,1360.00
2018-06-04T05:12:29.486Z,1360.00
2018-06-04T05:13:29.350Z,1364.00
2018-06-04T05:14:29.319Z,1372.00
2018-06-04T05:15:29.330Z,1376.00
2018-06-04T05:16:29.275Z,1384.00
2018-06-04T05:17:29.250Z,1392.00
2018-06-04T05:18:29.298Z,1404.00
2018-06-04T05:19:29.237Z,1408.00
2018-06-04T05:20:29.213Z,1412.00
2018-06-04T05:21:29.226Z,1420.00
2018-06-04T05:22:29.129Z,1428.00
2018-06-04T05:23:29.099Z,1432.00
2018-06-04T05:24:29.090Z,1444.00
2018-06-04T05:25:29.060Z,1456.00
2018-06-04T05:26:29.096Z,1460.00
2018-06-04T05:27:29.003Z,1468.00
2018-06-04T05:28:28.989Z,1480.00
2018-06-04T05:29:28.966Z,1488.00
2018-06-04T05:30:28.933Z,1492.00
2018-06-04T05:31:28.910Z,1504.00
2018-06-04T05:32:28.891Z,1508.00
2018-06-04T05:33:28.869Z,1508.00
2018-06-04T05:34:28.838Z,1504.00
2018-06-04T05:35:28.814Z,1504.00
2018-06-04T05:36:28.799Z,1500.00
2018-06-04T05:37:28.771Z,1500.00
2018-06-04T05:38:28.748Z,1496.00
2018-06-04T05:39:28.723Z,1496.00
2018-06-04T05:40:28.714Z,1496.00
2018-06-04T05:41:28.677Z,1496.00
2018-06-04T05:42:28.650Z,1492.00
2018-06-04T05:43:28.630Z,1488.00
2018-06-04T05:44:28.602Z,1488.00
2018-06-04T05:45:28.579Z,1488.00
2018-06-04T05:46:28.554Z,1488.00
2018-06-04T05:47:28.530Z,1484.00
2018-06-04T05:48:28.505Z,1488.00
2018-06-04T05:49:28.479Z,1484.00
2018-06-04T05:50:28.463Z,1484.00
2018-06-04T05:51:28.445Z,1492.00
2018-06-04T05:52:28.406Z,1500.00
2018-06-04T05:53:28.387Z,1508.00
2018-06-04T05:54:28.366Z,1504.00
2018-06-04T05:55:28.341Z,1512.00
2018-06-04T05:56:28.320Z,1512.00
2018-06-04T05:57:28.295Z,1516.00
2018-06-04T05:58:28.294Z,1516.00
2018-06-04T05:59:28.249Z,1516.00
2018-06-04T06:00:28.220Z,1516.00
2018-06-04T06:01:28.192Z,1516.00
2018-06-04T06:02:28.177Z,1508.00
2018-06-04T06:03:28.156Z,1504.00
2018-06-04T06:04:28.123Z,1504.00
2018-06-04T06:05:28.101Z,1508.00
2018-06-04T06:06:28.078Z,1508.00
2018-06-04T06:07:28.056Z,1516.00
2018-06-04T06:08:28.056Z,1516.00
2018-06-04T06:09:28.007Z,1520.00
2018-06-04T06:10:27.979Z,1520.00
2018-06-04T06:11:27.969Z,1528.00
2018-06-04T06:12:27.931Z,1532.00
2018-06-04T06:13:27.922Z,1536.00
2018-06-04T06:14:27.940Z,1544.00
2018-06-04T06:15:27.863Z,1548.00
2018-06-04T06:16:27.847Z,1544.00
2018-06-04T06:17:27.826Z,1552.00
2018-06-04T06:18:27.794Z,1552.00
2018-06-04T06:19:27.771Z,1556.00
2018-06-04T06:20:27.743Z,1556.00
2018-06-04T06:21:27.720Z,1556.00
2018-06-04T06:22:27.703Z,1560.00
2018-06-04T06:23:27.680Z,1552.00
2018-06-04T06:24:27.659Z,1552.00
2018-06-04T06:25:27.648Z,1556.00
2018-06-04T06:26:27.600Z,1552.00
2018-06-04T06:27:27.581Z,1556.00
2018-06-04T06:28:27.557Z,1556.00
2018-06-04T06:29:27.535Z,1552.00
2018-06-04T06:30:27.515Z,1548.00
2018-06-04T06:31:27.486Z,1548.00
2018-06-04T06:32:27.469Z,1548.00
2018-06-04T06:33:27.439Z,1544.00
2018-06-04T06:34:27.421Z,1544.00
2018-06-04T06:35:27.398Z,1544.00
2018-06-04T06:36:27.380Z,1540.00
2018-06-04T06:37:27.354Z,1548.00
2018-06-04T06:38:27.319Z,1556.00
2018-06-04T06:39:27.295Z,1556.00
2018-06-04T06:40:27.281Z,1548.00
2018-06-04T06:41:27.249Z,1532.00
2018-06-04T06:42:27.235Z,1540.00
2018-06-04T06:43:27.205Z,1548.00
2018-06-04T06:44:27.178Z,1572.00
2018-06-04T06:45:27.169Z,1576.00
2018-06-04T06:46:27.141Z,1580.00
2018-06-04T06:47:27.115Z,1588.00
2018-06-04T06:48:27.114Z,1588.00
2018-06-04T06:49:27.072Z,1588.00
2018-06-04T06:50:27.041Z,1584.00
2018-06-04T06:51:27.015Z,1588.00
2018-06-04T06:52:27.001Z,1588.00
2018-06-04T06:53:26.996Z,1584.00
2018-06-04T06:54:26.952Z,1580.00
2018-06-04T06:55:26.969Z,1584.00
2018-06-04T06:56:26.905Z,1588.00
2018-06-04T06:57:26.882Z,1592.00
2018-06-04T06:58:26.850Z,1592.00
2018-06-04T06:59:26.828Z,1592.00
2018-06-04T07:00:26.814Z,1592.00
2018-06-04T07:01:26.784Z,1596.00
2018-06-04T07:02:26.771Z,1564.00
2018-06-04T07:03:26.738Z,1600.00
2018-06-04T07:04:26.716Z,1604.00
2018-06-04T07:05:26.687Z,1604.00
2018-06-04T07:06:26.675Z,1604.00
2018-06-04T07:07:26.651Z,1612.00
2018-06-04T07:08:26.618Z,1608.00
2018-06-04T07:09:26.605Z,1616.00
2018-06-04T07:10:26.582Z,1612.00
2018-06-04T07:11:26.553Z,1612.00
2018-06-04T07:12:26.534Z,1612.00
2018-06-04T07:13:26.511Z,1612.00
2018-06-04T07:14:26.540Z,1616.00
2018-06-04T07:15:26.465Z,1620.00
2018-06-04T07:16:26.433Z,1624.00
2018-06-04T07:17:26.422Z,1620.00
2018-06-04T07:18:26.386Z,1620.00
2018-06-04T07:19:26.369Z,1624.00
2018-06-04T07:20:26.346Z,1624.00
2018-06-04T07:21:26.363Z,1624.00
2018-06-04T07:22:26.297Z,1628.00
2018-06-04T07:23:26.297Z,1632.00
2018-06-04T07:24:26.256Z,1632.00
2018-06-04T07:25:26.237Z,1640.00
2018-06-04T07:26:26.219Z,1636.00
2018-06-04T07:27:26.182Z,1636.00
2018-06-04T07:28:26.160Z,1636.00
2018-06-04T07:29:26.143Z,1640.00
2018-06-04T07:30:26.110Z,1644.00
2018-06-04T07:31:26.848Z,1632.00
2018-06-04T07:32:26.072Z,1620.00
2018-06-04T07:33:26.046Z,1520.00
2018-06-04T07:34:26.027Z,1668.00
2018-06-04T07:35:25.994Z,1672.00
2018-06-04T07:36:25.979Z,1668.00
2018-06-04T07:37:25.948Z,1664.00
2018-06-04T07:38:25.926Z,1668.00
2018-06-04T07:39:25.912Z,1668.00
2018-06-04T07:40:25.882Z,1664.00
2018-06-04T07:41:25.865Z,1676.00
2018-06-04T07:42:25.834Z,1696.00
2018-06-04T07:43:25.809Z,1700.00
2018-06-04T07:44:25.882Z,1704.00
2018-06-04T07:45:25.764Z,1700.00
2018-06-04T07:46:25.749Z,1704.00
2018-06-04T07:47:25.726Z,1696.00
2018-06-04T07:48:25.694Z,1700.00
2018-06-04T07:49:25.672Z,1716.00
2018-06-04T07:50:25.653Z,1720.00
2018-06-04T07:51:25.626Z,1740.00
2018-06-04T07:52:25.606Z,1736.00
2018-06-04T07:53:25.582Z,1732.00
2018-06-04T07:54:25.559Z,1732.00
2018-06-04T07:55:25.542Z,1712.00
2018-06-04T07:56:25.509Z,1712.00
2018-06-04T07:57:25.490Z,1716.00
2018-06-04T07:58:25.465Z,1728.00
2018-06-04T07:59:25.445Z,1736.00
2018-06-04T08:00:25.423Z,1756.00
2018-06-04T08:01:25.404Z,1732.00
2018-06-04T08:02:25.376Z,1724.00
2018-06-04T08:03:25.347Z,1752.00
2018-06-04T08:04:25.406Z,1756.00
2018-06-04T08:05:25.311Z,1732.00
2018-06-04T08:06:25.301Z,1720.00
2018-06-04T08:07:25.254Z,1728.00
2018-06-04T08:08:25.239Z,1740.00
2018-06-04T08:09:25.214Z,1752.00
2018-06-04T08:10:25.205Z,1752.00
2018-06-04T08:11:25.171Z,1756.00
2018-06-04T08:12:25.140Z,1776.00
2018-06-04T08:13:25.126Z,1760.00
2018-06-04T08:14:25.099Z,1744.00
2018-06-04T08:15:25.072Z,1736.00
2018-06-04T08:16:25.058Z,1748.00
2018-06-04T08:17:25.032Z,1756.00
2018-06-04T08:18:25.004Z,1772.00
2018-06-04T08:19:25.001Z,1800.00
2018-06-04T08:20:24.956Z,1824.00
2018-06-04T08:21:24.937Z,1844.00
2018-06-04T08:22:24.918Z,1860.00
2018-06-04T08:23:24.900Z,1868.00
2018-06-04T08:24:24.870Z,1860.00
2018-06-04T08:25:24.895Z,1848.00
2018-06-04T08:26:24.879Z,1828.00
2018-06-04T08:27:24.798Z,1808.00
2018-06-04T08:28:24.784Z,1816.00
2018-06-04T08:29:24.759Z,1832.00
2018-06-04T08:30:24.737Z,1848.00
2018-06-04T08:31:24.709Z,1848.00
2018-06-04T08:32:24.689Z,1848.00
2018-06-04T08:33:24.662Z,1884.00
2018-06-04T08:34:24.645Z,1968.00
2018-06-04T08:35:24.614Z,1944.00
2018-06-04T08:36:24.595Z,1896.00
2018-06-04T08:37:24.570Z,1864.00
2018-06-04T08:38:24.612Z,1948.00
2018-06-04T08:39:24.532Z,2024.00
2018-06-04T08:40:24.511Z,2060.00
2018-06-04T08:41:24.486Z,2060.00
2018-06-04T08:42:24.458Z,2084.00
2018-06-04T08:43:24.466Z,2080.00
2018-06-04T08:44:24.412Z,2072.00
2018-06-04T08:45:24.390Z,2036.00
2018-06-04T08:46:24.370Z,2012.00
2018-06-04T08:47:24.351Z,1988.00
2018-06-04T08:48:24.330Z,1932.00
2018-06-04T08:49:24.298Z,1984.00
2018-06-04T08:50:24.280Z,2072.00
2018-06-04T08:51:24.253Z,2028.00
2018-06-04T08:52:24.236Z,1972.00
2018-06-04T08:53:24.215Z,1956.00
2018-06-04T08:54:24.187Z,1956.00
2018-06-04T08:55:24.171Z,1956.00
2018-06-04T08:56:24.219Z,1948.00
2018-06-04T08:57:24.118Z,2128.00
2018-06-04T08:58:24.100Z,2524.00
2018-06-04T08:59:24.070Z,2792.00
2018-06-04T09:00:24.054Z,2748.00
2018-06-04T09:01:24.037Z,2452.00
2018-06-04T09:02:24.006Z,2264.00
2018-06-04T09:03:23.989Z,2172.00
2018-06-04T09:04:23.961Z,2128.00
2018-06-04T09:05:23.944Z,2180.00
2018-06-04T09:06:23.915Z,2212.00
2018-06-04T09:07:23.890Z,2552.00
2018-06-04T09:08:23.875Z,2920.00
2018-06-04T09:09:23.850Z,2680.00
2018-06-04T09:10:23.822Z,2420.00
2018-06-04T09:11:23.804Z,2536.00
2018-06-04T09:12:23.777Z,2804.00
2018-06-04T09:13:23.762Z,3072.00
2018-06-04T09:14:23.732Z,2864.00
2018-06-04T09:15:23.728Z,2680.00
2018-06-04T09:16:23.692Z,2636.00
2018-06-04T09:17:23.668Z,2568.00
2018-06-04T09:18:23.651Z,2376.00
2018-06-04T09:19:23.618Z,2092.00
2018-06-04T09:20:23.604Z,1956.00
2018-06-04T09:21:23.577Z,2044.00
2018-06-04T09:22:23.552Z,2360.00
2018-06-04T09:23:23.534Z,2740.00
2018-06-04T09:24:23.512Z,2728.00
2018-06-04T09:25:23.487Z,2680.00
2018-06-04T09:26:23.466Z,2660.00
2018-06-04T09:27:23.448Z,2768.00
2018-06-04T09:28:23.423Z,2704.00
2018-06-04T09:29:23.400Z,2596.00
2018-06-04T09:30:23.393Z,2648.00
2018-06-04T09:31:23.351Z,2880.00
2018-06-04T09:32:23.397Z,3444.00
2018-06-04T09:33:23.310Z,3732.00
2018-06-04T09:34:23.294Z,3700.00
2018-06-04T09:35:23.262Z,3964.00
2018-06-04T09:36:23.243Z,4056.00
2018-06-04T09:37:23.218Z,4136.00
2018-06-04T09:38:23.194Z,4576.00
2018-06-04T09:39:23.171Z,4784.00
2018-06-04T09:40:23.151Z,4736.00
2018-06-04T09:41:23.128Z,4712.00
2018-06-04T09:42:23.116Z,4320.00
2018-06-04T09:43:23.089Z,4016.00
2018-06-04T09:44:23.066Z,3736.00
2018-06-04T09:45:23.036Z,3556.00
2018-06-04T09:46:23.033Z,3396.00
2018-06-04T09:47:23.028Z,3268.00
2018-06-04T09:48:22.977Z,3624.00
2018-06-04T09:49:22.956Z,3412.00
2018-06-04T09:50:22.927Z,3244.00
2018-06-04T09:51:22.906Z,3328.00
2018-06-04T09:52:22.890Z,3288.00
2018-06-04T09:53:22.868Z,3188.00
2018-06-04T09:54:22.846Z,2916.00
2018-06-04T09:55:22.824Z,2808.00
2018-06-04T09:56:22.795Z,2808.00
2018-06-04T09:57:22.831Z,2748.00
2018-06-04T09:58:22.749Z,2680.00
2018-06-04T09:59:22.734Z,2652.00
2018-06-04T10:00:22.704Z,2728.00
2018-06-04T10:01:22.690Z,3060.00
2018-06-04T10:02:22.671Z,3000.00
2018-06-04T10:03:22.644Z,3008.00
2018-06-04T10:04:22.619Z,2936.00
2018-06-04T10:05:22.598Z,2864.00
2018-06-04T10:06:22.574Z,2812.00
2018-06-04T10:07:22.552Z,2724.00
2018-06-04T10:08:22.536Z,2716.00
2018-06-04T10:09:22.513Z,2756.00
2018-06-04T10:10:22.493Z,2980.00
2018-06-04T10:11:22.467Z,3076.00
2018-06-04T10:12:22.444Z,3252.00
2018-06-04T10:13:22.423Z,3428.00
2018-06-04T10:14:22.402Z,3988.00
2018-06-04T10:15:22.377Z,4680.00
2018-06-04T10:16:22.364Z,5260.00
2018-06-04T10:17:22.330Z,5372.00
2018-06-04T10:18:22.314Z,5272.00
2018-06-04T10:19:22.290Z,4820.00
2018-06-04T10:20:22.277Z,4172.00
2018-06-04T10:21:22.243Z,3768.00
2018-06-04T10:22:22.224Z,3560.00
2018-06-04T10:23:22.221Z,3592.00
2018-06-04T10:24:22.184Z,3908.00
2018-06-04T10:25:22.151Z,4216.00
2018-06-04T10:26:22.139Z,4728.00
2018-06-04T10:27:22.110Z,5040.00
2018-06-04T10:28:22.093Z,5096.00
2018-06-04T10:29:22.084Z,5204.00
2018-06-04T10:30:22.045Z,5104.00
2018-06-04T10:31:22.022Z,4944.00
2018-06-04T10:32:22.010Z,5092.00
2018-06-04T10:33:21.980Z,4760.00
2018-06-04T10:34:21.960Z,4728.00
2018-06-04T10:35:21.943Z,4776.00
2018-06-04T10:36:21.918Z,4976.00
2018-06-04T10:37:21.901Z,5228.00
2018-06-04T10:38:21.871Z,5176.00
2018-06-04T10:39:21.855Z,4932.00
2018-06-04T10:40:21.827Z,5088.00
2018-06-04T10:41:21.807Z,5388.00
2018-06-04T10:42:21.789Z,5620.00
2018-06-04T10:43:21.764Z,5548.00
2018-06-04T10:44:21.872Z,5592.00
2018-06-04T10:45:21.721Z,5676.00
2018-06-04T10:46:21.715Z,6084.00
2018-06-04T10:47:21.673Z,5940.00
2018-06-04T10:48:21.687Z,5844.00
2018-06-04T10:49:21.642Z,5652.00
2018-06-04T10:50:21.640Z,5452.00
2018-06-04T10:51:21.611Z,5608.00
2018-06-04T10:52:21.568Z,5576.00
2018-06-04T10:53:21.550Z,5392.00
2018-06-04T10:54:21.527Z,5488.00
2018-06-04T10:55:21.522Z,5692.00
2018-06-04T10:56:21.493Z,5696.00
2018-06-04T10:57:21.468Z,5916.00
2018-06-04T10:58:21.448Z,6300.00
2018-06-04T10:59:21.446Z,6484.00
2018-06-04T11:00:21.394Z,6180.00
2018-06-04T11:01:21.441Z,6136.00
2018-06-04T11:02:21.388Z,5980.00
2018-06-04T11:03:21.406Z,5816.00
2018-06-04T11:04:21.313Z,5548.00
2018-06-04T11:05:21.347Z,5776.00
2018-06-04T11:06:21.268Z,5780.00
2018-06-04T11:07:21.272Z,5668.00
2018-06-04T11:08:21.226Z,5464.00
2018-06-04T11:09:21.226Z,5372.00
2018-06-04T11:10:21.184Z,5184.00
2018-06-04T11:11:21.168Z,4936.00
2018-06-04T11:12:21.193Z,4740.00
2018-06-04T11:13:21.136Z,4884.00
2018-06-04T11:14:21.102Z,5180.00
2018-06-04T11:15:21.090Z,5376.00
2018-06-04T11:16:21.110Z,5700.00
2018-06-04T11:17:21.059Z,5684.00
2018-06-04T11:18:21.043Z,5568.00
2018-06-04T11:19:20.998Z,5308.00
2018-06-04T11:20:21.005Z,4732.00
2018-06-04T11:21:20.953Z,4692.00
2018-06-04T11:22:20.930Z,4756.00
2018-06-04T11:23:20.939Z,4996.00
2018-06-04T11:24:20.979Z,5128.00
2018-06-04T11:25:20.960Z,5628.00
2018-06-04T11:26:20.850Z,5884.00
2018-06-04T11:27:20.827Z,6228.00
2018-06-04T11:28:20.809Z,6640.00
2018-06-04T11:29:20.807Z,7416.00
2018-06-04T11:30:20.765Z,7872.00
2018-06-04T11:31:20.759Z,7432.00
2018-06-04T11:32:20.762Z,7000.00
2018-06-04T11:33:20.775Z,6640.00
2018-06-04T11:34:20.693Z,6676.00
2018-06-04T11:35:20.673Z,6564.00
2018-06-04T11:36:20.709Z,6348.00
2018-06-04T11:37:20.617Z,5848.00
2018-06-04T11:38:20.590Z,5412.00
2018-06-04T11:39:20.571Z,5356.00
2018-06-04T11:40:20.568Z,5504.00
2018-06-04T11:41:20.543Z,5776.00
2018-06-04T11:42:20.507Z,5968.00
2018-06-04T11:43:20.493Z,6300.00
2018-06-04T11:44:20.460Z,6208.00
2018-06-04T11:45:20.440Z,6256.00
2018-06-04T11:46:20.422Z,6360.00
2018-06-04T11:47:20.399Z,6352.00
2018-06-04T11:48:20.383Z,6264.00
2018-06-04T11:49:20.365Z,6184.00
2018-06-04T11:50:20.333Z,6324.00
2018-06-04T11:51:20.354Z,6716.00
2018-06-04T11:52:20.294Z,6624.00
2018-06-04T11:53:20.268Z,6648.00
2018-06-04T11:54:20.256Z,6520.00
2018-06-04T11:55:20.228Z,6612.00
2018-06-04T11:56:20.258Z,6956.00
2018-06-04T11:57:20.192Z,7116.00
2018-06-04T11:58:20.164Z,7488.00
2018-06-04T11:59:27.285Z,7380.00
2018-06-04T12:01:13.032Z,7056.00
2018-06-04T12:02:12.963Z,7136.00
2018-06-04T12:04:05.809Z,7252.00
2018-06-04T12:05:05.802Z,7324.00
2018-06-04T12:06:58.656Z,7384.00
2018-06-04T12:07:58.602Z,7492.00
2018-06-04T12:09:51.484Z,7468.00
2018-06-04T12:10:51.463Z,7424.00
2018-06-04T12:12:44.307Z,7544.00
2018-06-04T12:13:44.254Z,7636.00
2018-06-04T12:14:44.234Z,7600.00
2018-06-04T12:15:44.214Z,7552.00
2018-06-04T12:16:44.185Z,7508.00
2018-06-04T12:17:44.171Z,7448.00
2018-06-04T12:18:44.148Z,7424.00
2018-06-04T12:19:44.125Z,7172.00
2018-06-04T12:20:44.110Z,7164.00
2018-06-04T12:21:44.080Z,7356.00
2018-06-04T12:22:44.067Z,7596.00
2018-06-04T12:23:44.049Z,7596.00
2018-06-04T12:24:44.020Z,7636.00
2018-06-04T12:25:44.005Z,7680.00
2018-06-04T12:26:43.976Z,7476.00
2018-06-04T12:27:43.961Z,7376.00
2018-06-04T12:28:43.947Z,7328.00
2018-06-04T12:29:43.917Z,7228.00